createdAt,value
2018-11-01T00:00:06.820Z,22.03
2018-11-01T00:02:35.619Z,19.87
2018-11-01T00:05:04.436Z,19.83
2018-11-01T00:07:33.407Z,19.23
2018-11-01T00:10:02.250Z,22.87
2018-11-01T00:12:31.081Z,16.83
2018-11-01T00:14:59.914Z,19.73
2018-11-01T00:17:28.678Z,18.80
2018-11-01T00:19:57.442Z,19.33
2018-11-01T00:22:26.209Z,17.70
2018-11-01T00:24:55.095Z,12.60
2018-11-01T00:27:23.934Z,18.90
2018-11-01T00:29:52.761Z,27.57
2018-11-01T00:32:21.638Z,21.97
2018-11-01T00:34:50.479Z,20.67
2018-11-01T00:37:19.287Z,24.50
2018-11-01T00:39:48.106Z,19.40
2018-11-01T00:42:16.923Z,18.50
2018-11-01T00:44:45.686Z,25.80
2018-11-01T00:47:14.570Z,22.07
2018-11-01T00:49:43.725Z,32.10
2018-11-01T00:52:12.518Z,34.40
2018-11-01T00:54:41.262Z,24.27
2018-11-01T00:57:10.271Z,31.63
2018-11-01T00:59:39.119Z,32.23
2018-11-01T01:02:08.342Z,25.93
2018-11-01T01:04:37.183Z,31.70
2018-11-01T01:07:06.301Z,23.13
2018-11-01T01:09:35.106Z,29.37
2018-11-01T01:12:04.242Z,19.10
2018-11-01T01:14:33.092Z,17.93
2018-11-01T01:17:01.884Z,24.30
2018-11-01T01:19:30.700Z,21.60
2018-11-01T01:21:59.555Z,20.87
2018-11-01T01:24:28.355Z,18.60
2018-11-01T01:26:57.194Z,22.37
2018-11-01T01:29:25.995Z,16.97
2018-11-01T01:31:55.132Z,23.20
2018-11-01T01:34:23.966Z,21.87
2018-11-01T01:36:52.988Z,18.03
2018-11-01T01:39:21.774Z,21.47
2018-11-01T01:41:50.728Z,19.27
2018-11-01T01:44:19.482Z,21.07
2018-11-01T01:46:50.038Z,23.53
2018-11-01T01:49:18.810Z,19.90
2018-11-01T01:51:47.634Z,21.80
2018-11-01T01:54:16.516Z,18.13
2018-11-01T01:56:45.318Z,20.20
2018-11-01T01:59:14.130Z,22.53
2018-11-01T02:01:42.914Z,21.67
2018-11-01T02:04:12.052Z,20.93
2018-11-01T02:06:40.866Z,20.83
2018-11-01T02:09:13.046Z,19.93
2018-11-01T02:11:43.377Z,17.97
2018-11-01T02:14:12.229Z,20.00
2018-11-01T02:16:41.595Z,25.70
2018-11-01T02:19:10.530Z,26.57
2018-11-01T02:21:39.336Z,26.10
2018-11-01T02:24:08.137Z,27.20
2018-11-01T02:26:36.940Z,21.50
2018-11-01T02:29:06.107Z,22.23
2018-11-01T02:31:34.975Z,21.57
2018-11-01T02:34:04.135Z,22.30
2018-11-01T02:36:32.943Z,25.93
2018-11-01T02:39:01.735Z,17.93
2018-11-01T02:41:30.527Z,19.13
2018-11-01T02:43:59.359Z,26.47
2018-11-01T02:46:28.152Z,22.20
2018-11-01T02:48:56.983Z,23.47
2018-11-01T02:51:25.767Z,22.23
2018-11-01T02:53:54.543Z,23.57
2018-11-01T02:56:23.298Z,20.27
2018-11-01T02:58:52.116Z,26.00
2018-11-01T03:01:20.935Z,26.60
2018-11-01T03:03:50.338Z,32.23
2018-11-01T03:06:19.562Z,21.10
2018-11-01T03:08:48.723Z,25.60
2018-11-01T03:11:18.568Z,26.47
2018-11-01T03:13:47.336Z,28.00
2018-11-01T03:16:16.122Z,25.70
2018-11-01T03:18:44.996Z,26.13
2018-11-01T03:21:13.754Z,29.27
2018-11-01T03:23:42.583Z,18.93
2018-11-01T03:26:11.339Z,21.30
2018-11-01T03:28:40.161Z,23.60
2018-11-01T03:31:08.956Z,18.37
2018-11-01T03:33:37.771Z,25.20
2018-11-01T03:36:06.559Z,20.93
2018-11-01T03:38:35.534Z,20.20
2018-11-01T03:41:04.737Z,20.63
2018-11-01T03:43:33.541Z,27.13
2018-11-01T03:46:03.047Z,28.13
2018-11-01T03:48:31.853Z,31.80
2018-11-01T03:51:00.710Z,31.23
2018-11-01T03:53:29.510Z,31.80
2018-11-01T03:55:58.795Z,33.63
2018-11-01T03:58:27.540Z,33.30
2018-11-01T04:00:56.319Z,38.60
2018-11-01T04:03:25.128Z,33.10
2018-11-01T04:05:53.930Z,41.13
2018-11-01T04:08:22.731Z,33.73
2018-11-01T04:10:51.502Z,32.77
2018-11-01T04:13:20.408Z,35.30
2018-11-01T04:15:49.113Z,31.10
2018-11-01T04:18:18.146Z,30.60
2018-11-01T04:20:46.983Z,41.93
2018-11-01T04:23:16.706Z,30.53
2018-11-01T04:25:45.720Z,35.43
2018-11-01T04:28:14.520Z,31.87
2018-11-01T04:30:43.295Z,34.23
2018-11-01T04:33:12.081Z,38.07
2018-11-01T04:35:41.066Z,37.97
2018-11-01T04:38:09.972Z,43.43
2018-11-01T04:40:38.841Z,37.27
2018-11-01T04:43:07.764Z,30.03
2018-11-01T04:45:36.740Z,31.47
2018-11-01T04:48:05.911Z,38.53
2018-11-01T04:50:34.730Z,42.20
2018-11-01T04:53:03.520Z,31.73
2018-11-01T04:55:32.311Z,34.30
2018-11-01T04:58:01.175Z,32.40
2018-11-01T05:00:30.020Z,35.00
2018-11-01T05:02:58.789Z,33.40
2018-11-01T05:05:27.625Z,34.90
2018-11-01T05:07:56.483Z,34.57
2018-11-01T05:10:25.322Z,31.47
2018-11-01T05:12:54.129Z,35.77
2018-11-01T05:15:23.516Z,30.80
2018-11-01T05:17:52.801Z,32.83
2018-11-01T05:20:21.618Z,32.93
2018-11-01T05:22:50.682Z,31.20
2018-11-01T05:25:19.686Z,27.17
2018-11-01T05:27:48.535Z,34.73
2018-11-01T05:30:17.363Z,32.20
2018-11-01T05:32:46.210Z,32.87
2018-11-01T05:35:15.002Z,35.33
2018-11-01T05:37:43.838Z,37.13
2018-11-01T05:40:13.155Z,31.13
2018-11-01T05:42:43.111Z,40.87
2018-11-01T05:45:12.189Z,36.40
2018-11-01T05:47:40.971Z,41.77
2018-11-01T05:50:09.869Z,37.97
2018-11-01T05:52:39.027Z,33.80
2018-11-01T05:55:08.757Z,28.47
2018-11-01T05:57:37.628Z,34.27
2018-11-01T06:00:11.580Z,32.97
2018-11-01T06:02:43.928Z,39.50
2018-11-01T06:05:12.743Z,41.10
2018-11-01T06:07:47.373Z,33.10
2018-11-01T06:10:16.295Z,33.80
2018-11-01T06:12:45.095Z,29.80
2018-11-01T06:15:13.897Z,32.60
2018-11-01T06:17:42.669Z,28.00
2018-11-01T06:20:12.071Z,30.50
2018-11-01T06:22:40.982Z,38.20
2018-11-01T06:25:10.837Z,37.17
2018-11-01T06:27:39.742Z,43.13
2018-11-01T06:30:11.531Z,35.73
2018-11-01T06:32:40.533Z,33.73
2018-11-01T06:35:16.170Z,40.63
2018-11-01T06:37:45.379Z,40.10
2018-11-01T06:40:14.219Z,38.77
2018-11-01T06:42:43.044Z,36.40
2018-11-01T06:45:11.931Z,31.43
2018-11-01T06:47:40.963Z,36.30
2018-11-01T06:50:09.798Z,38.13
2018-11-01T06:52:38.601Z,38.33
2018-11-01T06:55:08.994Z,36.17
2018-11-01T06:57:37.999Z,34.10
2018-11-01T07:00:11.516Z,40.20
2018-11-01T07:02:40.687Z,44.97
2018-11-01T07:05:09.610Z,33.77
2018-11-01T07:07:39.003Z,37.73
2018-11-01T07:10:09.842Z,43.53
2018-11-01T07:12:38.605Z,50.97
2018-11-01T07:15:08.963Z,35.77
2018-11-01T07:17:38.170Z,29.03
2018-11-01T07:20:08.266Z,43.40
2018-11-01T07:22:38.049Z,38.70
2018-11-01T07:25:08.156Z,37.73
2018-11-01T07:27:37.370Z,34.00
2018-11-01T07:30:12.008Z,40.77
2018-11-01T07:32:40.932Z,30.80
2018-11-01T07:35:11.382Z,40.47
2018-11-01T07:37:41.568Z,36.50
2018-11-01T07:40:12.910Z,38.17
2018-11-01T07:42:41.831Z,36.87
2018-11-01T07:45:11.776Z,35.77
2018-11-01T07:47:41.943Z,33.63
2018-11-01T07:50:11.715Z,37.37
2018-11-01T07:52:40.993Z,33.13
2018-11-01T07:55:13.014Z,38.70
2018-11-01T07:57:41.889Z,33.97
2018-11-01T08:00:14.650Z,42.27
2018-11-01T08:02:44.191Z,32.27
2018-11-01T08:05:19.287Z,42.93
2018-11-01T08:07:48.099Z,27.60
2018-11-01T08:10:18.166Z,40.63
2018-11-01T08:12:47.739Z,28.33
2018-11-01T08:15:17.985Z,40.67
2018-11-01T08:17:46.756Z,30.60
2018-11-01T08:20:16.286Z,33.73
2018-11-01T08:22:45.211Z,34.60
2018-11-01T08:25:14.547Z,35.37
2018-11-01T08:27:43.910Z,36.40
2018-11-01T08:30:14.550Z,30.20
2018-11-01T08:32:43.382Z,34.97
2018-11-01T08:35:12.596Z,27.87
2018-11-01T08:37:42.574Z,36.93
2018-11-01T08:40:12.216Z,38.23
2018-11-01T08:42:41.382Z,26.57
2018-11-01T08:45:11.930Z,32.67
2018-11-01T08:47:41.243Z,33.10
2018-11-01T08:50:11.999Z,31.97
2018-11-01T08:52:42.160Z,32.70
2018-11-01T08:55:11.385Z,34.23
2018-11-01T08:57:41.208Z,37.77
2018-11-01T09:00:10.835Z,37.37
2018-11-01T09:02:40.443Z,35.90
2018-11-01T09:05:10.327Z,33.73
2018-11-01T09:07:39.612Z,41.50
2018-11-01T09:10:17.003Z,37.63
2018-11-01T09:12:46.044Z,38.97
2018-11-01T09:15:16.288Z,45.67
2018-11-01T09:17:45.048Z,39.37
2018-11-01T09:20:14.377Z,34.33
2018-11-01T09:22:43.705Z,36.70
2018-11-01T09:25:12.511Z,39.87
2018-11-01T09:27:41.510Z,38.40
2018-11-01T09:30:12.341Z,32.40
2018-11-01T09:32:41.704Z,36.73
2018-11-01T09:35:11.779Z,32.00
2018-11-01T09:37:41.792Z,35.53
2018-11-01T09:40:12.445Z,37.10
2018-11-01T09:42:41.621Z,37.40
2018-11-01T09:45:10.435Z,34.07
2018-11-01T09:47:39.694Z,34.47
2018-11-01T09:50:09.820Z,35.90
2018-11-01T09:52:38.793Z,29.93
2018-11-01T09:55:07.794Z,35.83
2018-11-01T09:57:36.745Z,35.70
2018-11-01T10:00:13.411Z,34.60
2018-11-01T10:02:43.385Z,43.60
2018-11-01T10:05:12.343Z,48.23
2018-11-01T10:07:41.150Z,35.77
2018-11-01T10:10:11.718Z,30.07
2018-11-01T10:12:41.427Z,26.30
2018-11-01T10:15:10.972Z,40.47
2018-11-01T10:17:40.567Z,31.97
2018-11-01T10:20:11.171Z,40.60
2018-11-01T10:22:40.215Z,30.20
2018-11-01T10:25:11.246Z,35.13
2018-11-01T10:27:40.625Z,39.97
2018-11-01T10:30:13.073Z,41.60
2018-11-01T10:32:42.246Z,34.00
2018-11-01T10:35:11.034Z,35.80
2018-11-01T10:37:40.478Z,42.20
2018-11-01T10:40:12.559Z,35.73
2018-11-01T10:42:41.379Z,39.93
2018-11-01T10:45:10.684Z,42.40
2018-11-01T10:47:40.015Z,40.70
2018-11-01T10:50:12.438Z,40.93
2018-11-01T10:52:41.352Z,36.43
2018-11-01T10:55:11.299Z,44.33
2018-11-01T10:57:40.122Z,41.50
2018-11-01T11:00:17.286Z,39.00
2018-11-01T11:02:48.224Z,47.50
2018-11-01T11:05:18.036Z,38.87
2018-11-01T11:07:46.910Z,45.73
2018-11-01T11:10:16.013Z,36.53
2018-11-01T11:12:44.790Z,42.77
2018-11-01T11:15:13.594Z,39.77
2018-11-01T11:17:42.398Z,35.20
2018-11-01T11:20:12.182Z,40.13
2018-11-01T11:22:41.212Z,35.23
2018-11-01T11:25:11.410Z,41.30
2018-11-01T11:27:40.553Z,41.50
2018-11-01T11:30:10.441Z,34.43
2018-11-01T11:32:39.403Z,40.10
2018-11-01T11:35:08.832Z,40.60
2018-11-01T11:37:37.724Z,36.33
2018-11-01T11:40:07.756Z,43.30
2018-11-01T11:42:36.595Z,45.40
2018-11-01T11:45:06.199Z,40.80
2018-11-01T11:47:35.036Z,39.73
2018-11-01T11:50:04.213Z,39.43
2018-11-01T11:52:33.034Z,34.90
2018-11-01T11:55:02.191Z,36.27
2018-11-01T11:57:31.131Z,35.30
2018-11-01T11:59:59.896Z,34.23
2018-11-01T12:02:28.724Z,35.37
2018-11-01T12:04:57.647Z,27.63
2018-11-01T12:07:26.481Z,32.10
2018-11-01T12:09:55.343Z,28.77
2018-11-01T12:12:24.211Z,27.47
2018-11-01T12:14:52.977Z,27.00
2018-11-01T12:17:21.808Z,30.70
2018-11-01T12:19:50.641Z,26.57
2018-11-01T12:22:19.472Z,25.67
2018-11-01T12:24:48.431Z,31.40
2018-11-01T12:27:17.266Z,30.57
2018-11-01T12:29:46.042Z,25.83
2018-11-01T12:32:14.956Z,29.87
2018-11-01T12:34:43.706Z,28.50
2018-11-01T12:37:12.554Z,23.73
2018-11-01T12:39:41.386Z,27.60
2018-11-01T12:42:10.334Z,29.87
2018-11-01T12:44:39.227Z,30.87
2018-11-01T12:47:08.075Z,29.00
2018-11-01T12:49:36.946Z,32.43
2018-11-01T12:52:06.019Z,31.80
2018-11-01T12:54:34.895Z,33.60
2018-11-01T12:57:03.745Z,30.63
2018-11-01T12:59:32.638Z,31.37
2018-11-01T13:02:01.569Z,35.53
2018-11-01T13:04:30.378Z,34.50
2018-11-01T13:06:59.192Z,34.87
2018-11-01T13:09:28.342Z,32.07
2018-11-01T13:11:57.235Z,34.87
2018-11-01T13:14:26.027Z,33.83
2018-11-01T13:16:55.093Z,32.70
2018-11-01T13:19:23.919Z,32.70
2018-11-01T13:21:52.722Z,33.27
2018-11-01T13:24:21.527Z,26.10
2018-11-01T13:26:50.320Z,27.90
2018-11-01T13:29:19.254Z,31.80
2018-11-01T13:31:48.143Z,35.53
2018-11-01T13:34:16.961Z,31.67
2018-11-01T13:36:45.747Z,30.27
2018-11-01T13:39:14.569Z,31.83
2018-11-01T13:41:43.517Z,28.47
2018-11-01T13:44:12.438Z,30.00
2018-11-01T13:46:41.254Z,27.43
2018-11-01T13:49:10.157Z,30.33
2018-11-01T13:51:38.978Z,33.80
2018-11-01T13:54:07.775Z,35.47
2018-11-01T13:56:36.635Z,30.87
2018-11-01T13:59:06.328Z,38.73
2018-11-01T14:01:35.195Z,34.73
2018-11-01T14:04:04.245Z,36.93
2018-11-01T14:06:33.094Z,42.77
2018-11-01T14:09:01.941Z,35.50
2018-11-01T14:11:30.746Z,37.63
2018-11-01T14:13:59.874Z,37.30
2018-11-01T14:16:28.620Z,39.13
2018-11-01T14:18:57.458Z,29.33
2018-11-01T14:21:26.221Z,28.37
2018-11-01T14:23:55.030Z,31.37
2018-11-01T14:26:23.871Z,32.13
2018-11-01T14:28:52.672Z,32.90
2018-11-01T14:31:21.512Z,30.80
2018-11-01T14:33:50.267Z,35.33
2018-11-01T14:36:19.107Z,31.43
2018-11-01T14:38:47.915Z,34.57
2018-11-01T14:41:16.711Z,40.57
2018-11-01T14:43:45.614Z,31.03
2018-11-01T14:46:14.406Z,29.53
2018-11-01T14:48:43.277Z,23.23
2018-11-01T14:51:12.173Z,29.67
2018-11-01T14:53:41.093Z,26.90
2018-11-01T14:56:11.395Z,32.50
2018-11-01T14:58:40.116Z,24.83
2018-11-01T15:01:08.420Z,22.40
2018-11-01T15:03:37.203Z,17.57
2018-11-01T15:06:06.451Z,23.63
2018-11-01T15:08:35.275Z,20.97
2018-11-01T15:11:04.026Z,21.47
2018-11-01T15:13:32.933Z,24.93
2018-11-01T15:16:01.867Z,26.93
2018-11-01T15:18:30.763Z,19.40
2018-11-01T15:20:59.622Z,18.50
2018-11-01T15:23:28.454Z,22.00
2018-11-01T15:25:57.328Z,20.87
2018-11-01T15:28:26.256Z,16.33
2018-11-01T15:30:55.107Z,18.27
2018-11-01T15:33:23.996Z,21.07
2018-11-01T15:35:53.028Z,21.30
2018-11-01T15:38:22.244Z,18.20
2018-11-01T15:40:56.229Z,19.73
2018-11-01T15:43:25.035Z,19.23
2018-11-01T15:45:53.960Z,18.57
2018-11-01T15:48:22.997Z,19.90
2018-11-01T15:50:51.908Z,14.73
2018-11-01T15:53:20.719Z,14.50
2018-11-01T15:55:49.554Z,15.27
2018-11-01T15:58:18.382Z,16.97
2018-11-01T16:00:47.322Z,17.43
2018-11-01T16:03:16.194Z,21.07
2018-11-01T16:05:45.187Z,20.80
2018-11-01T16:08:13.994Z,16.80
2018-11-01T16:10:42.806Z,23.60
2018-11-01T16:13:11.611Z,24.23
2018-11-01T16:15:40.398Z,20.93
2018-11-01T16:18:09.152Z,18.57
2018-11-01T16:20:37.929Z,16.30
2018-11-01T16:23:06.803Z,16.03
2018-11-01T16:25:35.620Z,18.53
2018-11-01T16:28:04.451Z,20.33
2018-11-01T16:30:33.320Z,17.03
2018-11-01T16:33:02.086Z,18.37
2018-11-01T16:35:30.868Z,12.93
2018-11-01T16:38:00.016Z,18.13
2018-11-01T16:40:28.822Z,19.87
2018-11-01T16:42:57.722Z,19.63
2018-11-01T16:45:26.616Z,22.87
2018-11-01T16:47:55.477Z,17.23
2018-11-01T16:50:24.259Z,16.13
2018-11-01T16:52:53.073Z,19.77
2018-11-01T16:55:22.074Z,19.40
2018-11-01T16:57:52.329Z,16.80
2018-11-01T17:00:21.216Z,19.57
2018-11-01T17:02:50.199Z,22.00
2018-11-01T17:05:19.279Z,18.67
2018-11-01T17:07:48.078Z,17.67
2018-11-01T17:10:16.993Z,23.70
2018-11-01T17:12:45.786Z,23.33
2018-11-01T17:15:15.747Z,19.10
2018-11-01T17:17:45.545Z,21.73
2018-11-01T17:20:14.386Z,20.17
2018-11-01T17:22:43.458Z,24.97
2018-11-01T17:25:12.568Z,20.33
2018-11-01T17:27:41.484Z,13.77
2018-11-01T17:30:12.086Z,16.33
2018-11-01T17:32:45.957Z,24.63
2018-11-01T17:35:15.215Z,20.80
2018-11-01T17:37:44.002Z,20.80
2018-11-01T17:40:13.899Z,15.93
2018-11-01T17:42:43.535Z,21.73
2018-11-01T17:45:12.367Z,22.13
2018-11-01T17:47:41.887Z,23.93
2018-11-01T17:50:12.492Z,22.30
2018-11-01T17:52:41.834Z,22.40
2018-11-01T17:55:10.632Z,18.10
2018-11-01T17:57:40.160Z,14.83
2018-11-01T18:00:15.009Z,19.77
2018-11-01T18:02:44.314Z,18.63
2018-11-01T18:05:13.688Z,26.80
2018-11-01T18:07:42.666Z,20.53
2018-11-01T18:10:12.559Z,23.80
2018-11-01T18:12:41.778Z,22.70
2018-11-01T18:15:10.758Z,21.40
2018-11-01T18:17:39.532Z,29.37
2018-11-01T18:20:10.194Z,21.87
2018-11-01T18:22:39.480Z,20.73
2018-11-01T18:25:09.890Z,23.60
2018-11-01T18:27:38.670Z,18.83
2018-11-01T18:30:12.430Z,23.13
2018-11-01T18:32:41.809Z,22.80
2018-11-01T18:35:11.393Z,24.67
2018-11-01T18:37:40.958Z,24.03
2018-11-01T18:40:13.470Z,19.50
2018-11-01T18:42:42.439Z,21.13
2018-11-01T18:45:12.795Z,19.97
2018-11-01T18:47:42.421Z,30.77
2018-11-01T18:50:13.095Z,26.90
2018-11-01T18:52:42.622Z,21.30
2018-11-01T18:55:12.577Z,22.57
2018-11-01T18:57:41.548Z,16.93
2018-11-01T19:00:14.684Z,22.47
2018-11-01T19:02:43.738Z,22.43
2018-11-01T19:05:12.856Z,23.83
2018-11-01T19:07:42.316Z,24.57
2018-11-01T19:10:12.098Z,28.83
2018-11-01T19:12:41.054Z,22.37
2018-11-01T19:15:11.534Z,23.10
2018-11-01T19:17:41.106Z,26.10
2018-11-01T19:20:11.138Z,21.30
2018-11-01T19:22:40.125Z,26.20
2018-11-01T19:25:09.679Z,20.27
2018-11-01T19:27:39.467Z,28.23
2018-11-01T19:30:11.451Z,22.80
2018-11-01T19:32:40.491Z,19.13
2018-11-01T19:35:10.966Z,18.93
2018-11-01T19:37:39.815Z,22.60
2018-11-01T19:40:11.469Z,24.37
2018-11-01T19:42:40.326Z,30.57
2018-11-01T19:45:09.313Z,25.90
2018-11-01T19:47:38.451Z,23.37
2018-11-01T19:50:08.898Z,24.70
2018-11-01T19:52:37.652Z,22.47
2018-11-01T19:55:06.678Z,23.23
2018-11-01T19:57:35.689Z,15.87
2018-11-01T20:00:10.096Z,17.80
2018-11-01T20:02:38.979Z,16.07
2018-11-01T20:05:08.998Z,15.53
2018-11-01T20:07:37.890Z,14.23
2018-11-01T20:10:08.300Z,20.67
2018-11-01T20:12:37.303Z,22.30
2018-11-01T20:15:06.778Z,21.23
2018-11-01T20:17:35.843Z,17.37
2018-11-01T20:20:06.233Z,21.27
2018-11-01T20:22:35.007Z,22.63
2018-11-01T20:25:03.885Z,24.07
2018-11-01T20:27:32.704Z,20.03
2018-11-01T20:30:01.712Z,18.83
2018-11-01T20:32:30.730Z,33.50
2018-11-01T20:34:59.519Z,26.30
2018-11-01T20:37:28.337Z,20.97
2018-11-01T20:39:57.131Z,23.63
2018-11-01T20:42:25.945Z,20.17
2018-11-01T20:44:54.779Z,20.40
2018-11-01T20:47:23.583Z,19.27
2018-11-01T20:49:52.337Z,20.13
2018-11-01T20:52:21.206Z,22.77
2018-11-01T20:54:49.990Z,22.10
2018-11-01T20:57:19.182Z,27.30
2018-11-01T20:59:48.069Z,29.13
2018-11-01T21:02:16.888Z,28.87
2018-11-01T21:04:46.416Z,32.53
2018-11-01T21:07:15.370Z,35.73
2018-11-01T21:09:44.161Z,34.20
2018-11-01T21:12:13.294Z,34.40
2018-11-01T21:14:42.178Z,33.50
2018-11-01T21:17:11.001Z,38.13
2018-11-01T21:19:40.054Z,39.63
2018-11-01T21:22:12.119Z,40.93
2018-11-01T21:24:40.906Z,39.73
2018-11-01T21:27:10.205Z,41.80
2018-11-01T21:29:39.056Z,45.07
2018-11-01T21:32:08.575Z,40.50
2018-11-01T21:34:37.587Z,39.33
2018-11-01T21:37:06.842Z,42.80
2018-11-01T21:39:35.901Z,47.47
2018-11-01T21:42:05.284Z,49.80
2018-11-01T21:44:34.466Z,46.00
2018-11-01T21:47:03.331Z,41.20
2018-11-01T21:49:32.343Z,40.00
2018-11-01T21:52:01.114Z,43.70
2018-11-01T21:54:30.346Z,39.50
2018-11-01T21:56:59.125Z,46.00
2018-11-01T21:59:27.926Z,42.70
2018-11-01T22:01:56.754Z,42.73
2018-11-01T22:04:25.531Z,50.27
2018-11-01T22:06:54.594Z,46.00
2018-11-01T22:09:23.543Z,42.37
2018-11-01T22:11:52.588Z,41.67
2018-11-01T22:14:21.371Z,42.17
2018-11-01T22:16:50.209Z,47.40
2018-11-01T22:19:19.195Z,46.77
2018-11-01T22:21:48.045Z,46.27
2018-11-01T22:24:16.798Z,44.93
2018-11-01T22:26:45.547Z,48.07
2018-11-01T22:29:14.348Z,43.83
2018-11-01T22:31:43.264Z,42.87
2018-11-01T22:34:12.034Z,43.90
2018-11-01T22:36:40.818Z,39.07
2018-11-01T22:39:10.431Z,44.73
2018-11-01T22:41:39.411Z,47.23
2018-11-01T22:44:08.337Z,46.80
2018-11-01T22:46:37.075Z,43.97
2018-11-01T22:49:06.260Z,45.50
2018-11-01T22:51:35.238Z,43.13
2018-11-01T22:54:04.265Z,44.17
2018-11-01T22:56:33.064Z,42.67
2018-11-01T22:59:01.922Z,51.97
2018-11-01T23:01:30.960Z,47.83
2018-11-01T23:03:59.742Z,53.83
2018-11-01T23:06:28.540Z,48.40
2018-11-01T23:08:57.342Z,50.60
2018-11-01T23:11:26.167Z,50.03
2018-11-01T23:13:54.956Z,52.40
2018-11-01T23:16:23.715Z,54.03
2018-11-01T23:18:52.493Z,54.33
2018-11-01T23:21:21.293Z,45.20
2018-11-01T23:23:50.054Z,48.97
2018-11-01T23:26:18.829Z,52.57
2018-11-01T23:28:47.754Z,47.47
2018-11-01T23:31:16.578Z,52.10
2018-11-01T23:33:45.364Z,48.80
2018-11-01T23:36:13.416Z,47.87
2018-11-01T23:38:47.333Z,52.07
2018-11-01T23:41:21.381Z,47.60
2018-11-01T23:43:55.374Z,44.80
2018-11-01T23:46:29.426Z,48.30
2018-11-01T23:49:16.722Z,50.30
2018-11-01T23:51:49.634Z,49.07
2018-11-01T23:54:18.414Z,49.20
2018-11-01T23:56:47.236Z,44.90
2018-11-01T23:59:16.029Z,45.63
